sensor_id;sensor_type;location;lat;lon;timestamp;temperature;humidity
60293;DHT22;52402;52.670;6.750;2022-11-04T00:01:57;11.30;99.90
60293;DHT22;52402;52.670;6.750;2022-11-04T00:04:25;11.30;99.90
60293;DHT22;52402;52.670;6.750;2022-11-04T00:06:51;11.30;99.90
60293;DHT22;52402;52.670;6.750;2022-11-04T00:09:20;11.20;99.90
60293;DHT22;52402;52.670;6.750;2022-11-04T00:11:46;11.20;99.90
60293;DHT22;52402;52.670;6.750;2022-11-04T00:14:31;11.20;99.90
60293;DHT22;52402;52.670;6.750;2022-11-04T00:16:58;11.10;99.90
60293;DHT22;52402;52.670;6.750;2022-11-04T00:19:42;11.10;99.90
60293;DHT22;52402;52.670;6.750;2022-11-04T00:22:26;11.00;99.90
60293;DHT22;52402;52.670;6.750;2022-11-04T00:25:11;11.00;99.90
60293;DHT22;52402;52.670;6.750;2022-11-04T00:28:08;11.00;99.90
60293;DHT22;52402;52.670;6.750;2022-11-04T00:30:54;11.00;99.90
60293;DHT22;52402;52.670;6.750;2022-11-04T00:33:20;11.00;99.90
60293;DHT22;52402;52.670;6.750;2022-11-04T00:35:54;10.90;99.90
60293;DHT22;52402;52.670;6.750;2022-11-04T00:38:21;10.90;99.90
60293;DHT22;52402;52.670;6.750;2022-11-04T00:40:47;10.90;99.90
60293;DHT22;52402;52.670;6.750;2022-11-04T00:43:12;10.90;99.90
60293;DHT22;52402;52.670;6.750;2022-11-04T00:45:40;10.80;99.90
60293;DHT22;52402;52.670;6.750;2022-11-04T00:48:06;10.80;99.90
60293;DHT22;52402;52.670;6.750;2022-11-04T00:50:31;10.80;99.90
60293;DHT22;52402;52.670;6.750;2022-11-04T00:52:58;10.80;99.90
60293;DHT22;52402;52.670;6.750;2022-11-04T00:55:24;10.70;99.90
60293;DHT22;52402;52.670;6.750;2022-11-04T00:57:50;10.70;99.90
60293;DHT22;52402;52.670;6.750;2022-11-04T01:00:16;10.70;99.90
60293;DHT22;52402;52.670;6.750;2022-11-04T01:02:41;10.70;99.90
60293;DHT22;52402;52.670;6.750;2022-11-04T01:05:07;10.60;99.90
60293;DHT22;52402;52.670;6.750;2022-11-04T01:07:33;10.60;99.90
60293;DHT22;52402;52.670;6.750;2022-11-04T01:09:58;10.60;99.90
60293;DHT22;52402;52.670;6.750;2022-11-04T01:12:24;10.60;99.90
60293;DHT22;52402;52.670;6.750;2022-11-04T01:14:50;10.60;99.90
60293;DHT22;52402;52.670;6.750;2022-11-04T01:17:15;10.50;99.90
60293;DHT22;52402;52.670;6.750;2022-11-04T01:19:41;10.50;99.90
60293;DHT22;52402;52.670;6.750;2022-11-04T01:22:07;10.50;99.90
60293;DHT22;52402;52.670;6.750;2022-11-04T01:24:32;10.50;99.90
60293;DHT22;52402;52.670;6.750;2022-11-04T01:26:58;10.50;99.90
60293;DHT22;52402;52.670;6.750;2022-11-04T01:29:23;10.50;99.90
60293;DHT22;52402;52.670;6.750;2022-11-04T01:31:49;10.50;99.90
60293;DHT22;52402;52.670;6.750;2022-11-04T01:34:15;10.50;99.90
60293;DHT22;52402;52.670;6.750;2022-11-04T01:36:40;10.40;99.90
60293;DHT22;52402;52.670;6.750;2022-11-04T01:39:06;10.50;99.90
60293;DHT22;52402;52.670;6.750;2022-11-04T01:41:32;10.50;99.90
60293;DHT22;52402;52.670;6.750;2022-11-04T01:46:45;10.50;99.90
60293;DHT22;52402;52.670;6.750;2022-11-04T01:49:33;10.50;99.90
60293;DHT22;52402;52.670;6.750;2022-11-04T01:52:03;10.50;99.90
60293;DHT22;52402;52.670;6.750;2022-11-04T01:54:29;10.50;99.90
60293;DHT22;52402;52.670;6.750;2022-11-04T01:56:57;10.60;99.90
60293;DHT22;52402;52.670;6.750;2022-11-04T01:59:31;10.60;99.90
60293;DHT22;52402;52.670;6.750;2022-11-04T02:01:57;10.60;99.90
60293;DHT22;52402;52.670;6.750;2022-11-04T02:04:23;10.60;99.90
60293;DHT22;52402;52.670;6.750;2022-11-04T02:06:59;10.70;99.90
60293;DHT22;52402;52.670;6.750;2022-11-04T02:09:27;10.70;99.90
60293;DHT22;52402;52.670;6.750;2022-11-04T02:11:53;10.70;99.90
60293;DHT22;52402;52.670;6.750;2022-11-04T02:14:38;10.70;99.90
60293;DHT22;52402;52.670;6.750;2022-11-04T02:33:20;10.80;99.90
60293;DHT22;52402;52.670;6.750;2022-11-04T02:36:03;10.80;99.90
60293;DHT22;52402;52.670;6.750;2022-11-04T02:38:53;10.80;99.90
60293;DHT22;52402;52.670;6.750;2022-11-04T02:41:40;10.80;99.90
60293;DHT22;52402;52.670;6.750;2022-11-04T02:44:20;10.80;99.90
60293;DHT22;52402;52.670;6.750;2022-11-04T02:46:52;10.70;99.90
60293;DHT22;52402;52.670;6.750;2022-11-04T02:52:09;10.70;99.90
60293;DHT22;52402;52.670;6.750;2022-11-04T02:54:43;10.70;99.90
60293;DHT22;52402;52.670;6.750;2022-11-04T02:57:16;10.60;99.90
60293;DHT22;52402;52.670;6.750;2022-11-04T02:59:48;10.70;99.90
60293;DHT22;52402;52.670;6.750;2022-11-04T03:02:23;10.60;99.90
60293;DHT22;52402;52.670;6.750;2022-11-04T03:04:52;10.60;99.90
60293;DHT22;52402;52.670;6.750;2022-11-04T03:07:23;10.60;99.90
60293;DHT22;52402;52.670;6.750;2022-11-04T03:09:54;10.60;99.90
60293;DHT22;52402;52.670;6.750;2022-11-04T03:12:25;10.60;99.90
60293;DHT22;52402;52.670;6.750;2022-11-04T03:14:56;10.60;99.90
60293;DHT22;52402;52.670;6.750;2022-11-04T03:17:30;10.60;99.90
60293;DHT22;52402;52.670;6.750;2022-11-04T03:19:58;10.60;99.90
60293;DHT22;52402;52.670;6.750;2022-11-04T03:22:34;10.50;99.90
60293;DHT22;52402;52.670;6.750;2022-11-04T03:25:02;10.50;99.90
60293;DHT22;52402;52.670;6.750;2022-11-04T03:30:17;10.50;99.90
60293;DHT22;52402;52.670;6.750;2022-11-04T03:33:01;10.40;99.90
60293;DHT22;52402;52.670;6.750;2022-11-04T03:35:29;10.40;99.90
60293;DHT22;52402;52.670;6.750;2022-11-04T03:37:56;10.40;99.90
60293;DHT22;52402;52.670;6.750;2022-11-04T03:40:22;10.30;99.90
60293;DHT22;52402;52.670;6.750;2022-11-04T03:42:55;10.30;99.90
60293;DHT22;52402;52.670;6.750;2022-11-04T03:45:23;10.30;99.90
60293;DHT22;52402;52.670;6.750;2022-11-04T03:47:50;10.20;99.90
60293;DHT22;52402;52.670;6.750;2022-11-04T03:50:31;10.20;99.90
60293;DHT22;52402;52.670;6.750;2022-11-04T03:52:57;10.20;99.90
60293;DHT22;52402;52.670;6.750;2022-11-04T04:04:01;10.00;99.90
60293;DHT22;52402;52.670;6.750;2022-11-04T04:06:35;10.00;99.90
60293;DHT22;52402;52.670;6.750;2022-11-04T04:14:08;9.90;99.90
60293;DHT22;52402;52.670;6.750;2022-11-04T04:16:45;9.80;99.90
60293;DHT22;52402;52.670;6.750;2022-11-04T04:19:19;9.90;99.90
60293;DHT22;52402;52.670;6.750;2022-11-04T04:21:52;9.90;99.90
60293;DHT22;52402;52.670;6.750;2022-11-04T04:24:22;9.90;99.90
60293;DHT22;52402;52.670;6.750;2022-11-04T04:27:08;9.80;99.90
60293;DHT22;52402;52.670;6.750;2022-11-04T04:29:53;9.80;99.90
60293;DHT22;52402;52.670;6.750;2022-11-04T04:32:21;9.80;99.90
60293;DHT22;52402;52.670;6.750;2022-11-04T04:34:46;9.80;99.90
60293;DHT22;52402;52.670;6.750;2022-11-04T04:39:54;9.80;99.90
60293;DHT22;52402;52.670;6.750;2022-11-04T04:42:39;9.80;99.90
60293;DHT22;52402;52.670;6.750;2022-11-04T04:45:25;9.80;99.90
60293;DHT22;52402;52.670;6.750;2022-11-04T04:47:52;9.80;99.90
60293;DHT22;52402;52.670;6.750;2022-11-04T04:50:19;9.80;99.90
60293;DHT22;52402;52.670;6.750;2022-11-04T04:52:49;9.90;99.90
60293;DHT22;52402;52.670;6.750;2022-11-04T04:55:15;9.80;99.90
60293;DHT22;52402;52.670;6.750;2022-11-04T04:57:41;9.80;99.90
60293;DHT22;52402;52.670;6.750;2022-11-04T05:00:10;9.80;99.90
60293;DHT22;52402;52.670;6.750;2022-11-04T05:02:36;9.80;99.90
60293;DHT22;52402;52.670;6.750;2022-11-04T05:05:01;9.80;99.90
60293;DHT22;52402;52.670;6.750;2022-11-04T05:07:27;9.80;99.90
60293;DHT22;52402;52.670;6.750;2022-11-04T05:09:53;9.80;99.90
60293;DHT22;52402;52.670;6.750;2022-11-04T05:12:18;9.80;99.90
60293;DHT22;52402;52.670;6.750;2022-11-04T05:14:44;9.80;99.90
60293;DHT22;52402;52.670;6.750;2022-11-04T05:17:09;9.80;99.90
60293;DHT22;52402;52.670;6.750;2022-11-04T05:19:35;9.80;99.90
60293;DHT22;52402;52.670;6.750;2022-11-04T05:22:01;9.80;99.90
60293;DHT22;52402;52.670;6.750;2022-11-04T05:24:26;9.80;99.90
60293;DHT22;52402;52.670;6.750;2022-11-04T05:26:52;9.70;99.90
60293;DHT22;52402;52.670;6.750;2022-11-04T05:29:18;9.70;99.90
60293;DHT22;52402;52.670;6.750;2022-11-04T05:31:44;9.60;99.90
60293;DHT22;52402;52.670;6.750;2022-11-04T05:34:10;9.60;99.90
60293;DHT22;52402;52.670;6.750;2022-11-04T05:36:36;9.60;99.90
60293;DHT22;52402;52.670;6.750;2022-11-04T05:39:02;9.50;99.90
60293;DHT22;52402;52.670;6.750;2022-11-04T05:41:28;9.50;99.90
60293;DHT22;52402;52.670;6.750;2022-11-04T05:43:59;9.40;99.90
60293;DHT22;52402;52.670;6.750;2022-11-04T05:46:26;9.40;99.90
60293;DHT22;52402;52.670;6.750;2022-11-04T05:48:52;9.30;99.90
60293;DHT22;52402;52.670;6.750;2022-11-04T05:51:20;9.30;99.90
60293;DHT22;52402;52.670;6.750;2022-11-04T05:53:46;9.30;99.90
60293;DHT22;52402;52.670;6.750;2022-11-04T05:56:12;9.20;99.90
60293;DHT22;52402;52.670;6.750;2022-11-04T05:58:37;9.20;99.90
60293;DHT22;52402;52.670;6.750;2022-11-04T06:01:22;9.10;99.90
60293;DHT22;52402;52.670;6.750;2022-11-04T06:03:49;9.10;99.90
60293;DHT22;52402;52.670;6.750;2022-11-04T06:06:15;9.00;99.90
60293;DHT22;52402;52.670;6.750;2022-11-04T06:08:40;9.00;99.90
60293;DHT22;52402;52.670;6.750;2022-11-04T06:11:06;9.00;99.90
60293;DHT22;52402;52.670;6.750;2022-11-04T06:13:32;9.00;99.90
60293;DHT22;52402;52.670;6.750;2022-11-04T06:15:57;9.00;99.90
60293;DHT22;52402;52.670;6.750;2022-11-04T06:18:23;8.90;99.90
60293;DHT22;52402;52.670;6.750;2022-11-04T06:20:48;8.90;99.90
60293;DHT22;52402;52.670;6.750;2022-11-04T06:23:14;8.90;99.90
60293;DHT22;52402;52.670;6.750;2022-11-04T06:25:39;8.90;99.90
60293;DHT22;52402;52.670;6.750;2022-11-04T06:28:05;8.80;99.90
60293;DHT22;52402;52.670;6.750;2022-11-04T06:30:31;8.80;99.90
60293;DHT22;52402;52.670;6.750;2022-11-04T06:32:56;8.80;99.90
60293;DHT22;52402;52.670;6.750;2022-11-04T06:35:22;8.80;99.90
60293;DHT22;52402;52.670;6.750;2022-11-04T06:37:48;8.80;99.90
60293;DHT22;52402;52.670;6.750;2022-11-04T06:40:13;8.80;99.90
60293;DHT22;52402;52.670;6.750;2022-11-04T06:42:39;8.80;99.90
60293;DHT22;52402;52.670;6.750;2022-11-04T06:45:08;8.80;99.90
60293;DHT22;52402;52.670;6.750;2022-11-04T06:47:36;8.80;99.90
60293;DHT22;52402;52.670;6.750;2022-11-04T06:50:01;8.80;99.90
60293;DHT22;52402;52.670;6.750;2022-11-04T06:52:27;8.80;99.90
60293;DHT22;52402;52.670;6.750;2022-11-04T06:54:53;8.80;99.90
60293;DHT22;52402;52.670;6.750;2022-11-04T06:57:18;8.90;99.90
60293;DHT22;52402;52.670;6.750;2022-11-04T06:59:44;8.90;99.90
60293;DHT22;52402;52.670;6.750;2022-11-04T07:02:10;8.90;99.90
60293;DHT22;52402;52.670;6.750;2022-11-04T07:04:36;8.90;99.90
60293;DHT22;52402;52.670;6.750;2022-11-04T07:07:01;9.00;99.90
60293;DHT22;52402;52.670;6.750;2022-11-04T07:09:27;9.00;99.90
60293;DHT22;52402;52.670;6.750;2022-11-04T07:11:52;9.00;99.90
60293;DHT22;52402;52.670;6.750;2022-11-04T07:14:18;9.00;99.90
60293;DHT22;52402;52.670;6.750;2022-11-04T07:16:44;9.00;99.90
60293;DHT22;52402;52.670;6.750;2022-11-04T07:19:09;9.10;99.90
60293;DHT22;52402;52.670;6.750;2022-11-04T07:21:35;9.00;99.90
60293;DHT22;52402;52.670;6.750;2022-11-04T07:24:04;9.00;99.90
60293;DHT22;52402;52.670;6.750;2022-11-04T07:26:29;9.10;99.90
60293;DHT22;52402;52.670;6.750;2022-11-04T07:28:55;9.10;99.90
60293;DHT22;52402;52.670;6.750;2022-11-04T07:31:22;9.20;99.90
60293;DHT22;52402;52.670;6.750;2022-11-04T07:33:48;9.20;99.90
60293;DHT22;52402;52.670;6.750;2022-11-04T07:36:17;9.20;99.90
60293;DHT22;52402;52.670;6.750;2022-11-04T07:38:43;9.20;99.90
60293;DHT22;52402;52.670;6.750;2022-11-04T07:41:10;9.20;99.90
60293;DHT22;52402;52.670;6.750;2022-11-04T07:43:35;9.10;99.90
60293;DHT22;52402;52.670;6.750;2022-11-04T07:46:04;9.10;99.90
60293;DHT22;52402;52.670;6.750;2022-11-04T07:48:30;9.20;99.90
60293;DHT22;52402;52.670;6.750;2022-11-04T07:50:57;9.10;99.90
60293;DHT22;52402;52.670;6.750;2022-11-04T07:53:24;9.20;99.90
60293;DHT22;52402;52.670;6.750;2022-11-04T07:55:50;9.20;99.90
60293;DHT22;52402;52.670;6.750;2022-11-04T07:58:19;9.30;99.90
60293;DHT22;52402;52.670;6.750;2022-11-04T08:00:45;9.30;99.90
60293;DHT22;52402;52.670;6.750;2022-11-04T08:03:10;9.40;99.90
60293;DHT22;52402;52.670;6.750;2022-11-04T08:05:37;9.40;99.90
60293;DHT22;52402;52.670;6.750;2022-11-04T08:08:02;9.40;99.90
60293;DHT22;52402;52.670;6.750;2022-11-04T08:10:28;9.40;99.90
60293;DHT22;52402;52.670;6.750;2022-11-04T08:12:54;9.40;99.90
60293;DHT22;52402;52.670;6.750;2022-11-04T08:15:20;9.40;99.90
60293;DHT22;52402;52.670;6.750;2022-11-04T08:17:45;9.40;99.90
60293;DHT22;52402;52.670;6.750;2022-11-04T08:20:11;9.50;99.90
60293;DHT22;52402;52.670;6.750;2022-11-04T08:22:37;9.50;99.90
60293;DHT22;52402;52.670;6.750;2022-11-04T08:25:02;9.60;99.90
60293;DHT22;52402;52.670;6.750;2022-11-04T08:27:28;9.60;99.90
60293;DHT22;52402;52.670;6.750;2022-11-04T08:29:54;9.60;99.90
60293;DHT22;52402;52.670;6.750;2022-11-04T08:32:19;9.70;99.90
60293;DHT22;52402;52.670;6.750;2022-11-04T08:34:45;9.80;99.90
60293;DHT22;52402;52.670;6.750;2022-11-04T08:37:15;9.80;99.90
60293;DHT22;52402;52.670;6.750;2022-11-04T08:39:41;9.80;99.90
60293;DHT22;52402;52.670;6.750;2022-11-04T08:42:07;9.80;99.90
60293;DHT22;52402;52.670;6.750;2022-11-04T08:44:32;9.90;99.90
60293;DHT22;52402;52.670;6.750;2022-11-04T08:46:59;10.00;99.90
60293;DHT22;52402;52.670;6.750;2022-11-04T08:49:24;10.10;99.90
60293;DHT22;52402;52.670;6.750;2022-11-04T08:51:51;10.20;99.90
60293;DHT22;52402;52.670;6.750;2022-11-04T08:54:25;10.30;99.90
60293;DHT22;52402;52.670;6.750;2022-11-04T08:56:51;10.50;99.90
60293;DHT22;52402;52.670;6.750;2022-11-04T08:59:17;10.50;99.90
60293;DHT22;52402;52.670;6.750;2022-11-04T09:01:43;10.60;99.90
60293;DHT22;52402;52.670;6.750;2022-11-04T09:04:11;10.50;99.90
60293;DHT22;52402;52.670;6.750;2022-11-04T09:06:41;10.50;99.90
60293;DHT22;52402;52.670;6.750;2022-11-04T09:09:08;10.40;99.90
60293;DHT22;52402;52.670;6.750;2022-11-04T09:11:37;10.40;99.90
60293;DHT22;52402;52.670;6.750;2022-11-04T09:14:03;10.30;99.90
60293;DHT22;52402;52.670;6.750;2022-11-04T09:16:31;10.30;99.90
60293;DHT22;52402;52.670;6.750;2022-11-04T09:18:57;10.30;99.90
60293;DHT22;52402;52.670;6.750;2022-11-04T09:21:25;10.30;99.90
60293;DHT22;52402;52.670;6.750;2022-11-04T09:23:50;10.30;99.90
60293;DHT22;52402;52.670;6.750;2022-11-04T09:26:17;10.20;99.90
60293;DHT22;52402;52.670;6.750;2022-11-04T09:28:43;10.20;99.90
60293;DHT22;52402;52.670;6.750;2022-11-04T09:31:11;10.20;99.90
60293;DHT22;52402;52.670;6.750;2022-11-04T09:33:37;10.20;99.90
60293;DHT22;52402;52.670;6.750;2022-11-04T09:36:03;10.30;99.90
60293;DHT22;52402;52.670;6.750;2022-11-04T09:38:29;10.30;99.90
60293;DHT22;52402;52.670;6.750;2022-11-04T09:40:55;10.30;99.90
60293;DHT22;52402;52.670;6.750;2022-11-04T09:46:02;10.40;99.90
60293;DHT22;52402;52.670;6.750;2022-11-04T09:48:37;10.40;99.90
60293;DHT22;52402;52.670;6.750;2022-11-04T09:51:05;10.40;99.90
60293;DHT22;52402;52.670;6.750;2022-11-04T09:53:39;10.40;99.90
60293;DHT22;52402;52.670;6.750;2022-11-04T09:56:27;10.40;99.90
60293;DHT22;52402;52.670;6.750;2022-11-04T09:58:53;10.40;99.90
60293;DHT22;52402;52.670;6.750;2022-11-04T10:01:32;10.50;99.90
60293;DHT22;52402;52.670;6.750;2022-11-04T10:09:47;10.80;99.90
60293;DHT22;52402;52.670;6.750;2022-11-04T10:15:12;10.80;99.90
60293;DHT22;52402;52.670;6.750;2022-11-04T10:17:47;10.90;99.90
60293;DHT22;52402;52.670;6.750;2022-11-04T10:20:36;11.00;99.90
60293;DHT22;52402;52.670;6.750;2022-11-04T10:25:48;11.00;99.90
60293;DHT22;52402;52.670;6.750;2022-11-04T10:28:18;11.00;99.90
60293;DHT22;52402;52.670;6.750;2022-11-04T10:30:47;10.90;99.90
60293;DHT22;52402;52.670;6.750;2022-11-04T10:33:32;10.90;99.90
60293;DHT22;52402;52.670;6.750;2022-11-04T10:36:07;10.90;99.90
60293;DHT22;52402;52.670;6.750;2022-11-04T10:43:50;10.90;99.90
60293;DHT22;52402;52.670;6.750;2022-11-04T10:48:50;11.00;99.90
60293;DHT22;52402;52.670;6.750;2022-11-04T10:51:19;11.10;99.90
60293;DHT22;52402;52.670;6.750;2022-11-04T10:53:49;11.10;99.90
60293;DHT22;52402;52.670;6.750;2022-11-04T10:59:17;11.40;99.90
60293;DHT22;52402;52.670;6.750;2022-11-04T11:01:49;11.50;99.90
60293;DHT22;52402;52.670;6.750;2022-11-04T11:04:37;11.60;99.90
60293;DHT22;52402;52.670;6.750;2022-11-04T11:07:07;11.60;99.90
60293;DHT22;52402;52.670;6.750;2022-11-04T11:09:35;11.50;99.90
60293;DHT22;52402;52.670;6.750;2022-11-04T11:12:22;11.50;99.90
60293;DHT22;52402;52.670;6.750;2022-11-04T11:14:55;11.60;99.90
60293;DHT22;52402;52.670;6.750;2022-11-04T11:27:53;11.90;99.90
60293;DHT22;52402;52.670;6.750;2022-11-04T11:33:22;11.80;99.90
60293;DHT22;52402;52.670;6.750;2022-11-04T11:38:21;11.90;99.90
60293;DHT22;52402;52.670;6.750;2022-11-04T11:40:49;11.90;99.90
60293;DHT22;52402;52.670;6.750;2022-11-04T11:43:28;11.90;99.90
60293;DHT22;52402;52.670;6.750;2022-11-04T11:45:55;12.00;99.90
60293;DHT22;52402;52.670;6.750;2022-11-04T11:48:39;12.00;99.90
60293;DHT22;52402;52.670;6.750;2022-11-04T11:51:05;12.10;99.90
60293;DHT22;52402;52.670;6.750;2022-11-04T11:53:33;12.10;99.90
60293;DHT22;52402;52.670;6.750;2022-11-04T11:56:22;12.20;99.90
60293;DHT22;52402;52.670;6.750;2022-11-04T11:58:54;12.20;99.90
60293;DHT22;52402;52.670;6.750;2022-11-04T12:03:58;12.30;99.90
60293;DHT22;52402;52.670;6.750;2022-11-04T12:09:11;12.30;99.90
60293;DHT22;52402;52.670;6.750;2022-11-04T12:17:29;12.10;99.90
60293;DHT22;52402;52.670;6.750;2022-11-04T12:25:28;11.90;99.90
60293;DHT22;52402;52.670;6.750;2022-11-04T12:28:19;11.90;99.90
60293;DHT22;52402;52.670;6.750;2022-11-04T12:33:27;11.80;99.90
60293;DHT22;52402;52.670;6.750;2022-11-04T12:44:32;12.00;99.90
60293;DHT22;52402;52.670;6.750;2022-11-04T12:47:31;12.10;99.90
60293;DHT22;52402;52.670;6.750;2022-11-04T12:50:22;12.20;99.90
60293;DHT22;52402;52.670;6.750;2022-11-04T12:58:13;12.30;99.90
60293;DHT22;52402;52.670;6.750;2022-11-04T13:00:43;12.30;99.90
60293;DHT22;52402;52.670;6.750;2022-11-04T13:03:15;12.30;99.90
60293;DHT22;52402;52.670;6.750;2022-11-04T13:05:57;12.20;99.90
60293;DHT22;52402;52.670;6.750;2022-11-04T13:08:36;12.20;99.90
60293;DHT22;52402;52.670;6.750;2022-11-04T13:11:17;12.10;99.90
60293;DHT22;52402;52.670;6.750;2022-11-04T13:16:19;12.10;99.90
60293;DHT22;52402;52.670;6.750;2022-11-04T13:18:45;12.20;99.90
60293;DHT22;52402;52.670;6.750;2022-11-04T13:21:20;12.20;99.90
60293;DHT22;52402;52.670;6.750;2022-11-04T13:23:51;12.20;99.90
60293;DHT22;52402;52.670;6.750;2022-11-04T13:26:18;12.20;99.90
60293;DHT22;52402;52.670;6.750;2022-11-04T13:28:48;11.90;99.90
60293;DHT22;52402;52.670;6.750;2022-11-04T13:31:52;11.50;99.90
60293;DHT22;52402;52.670;6.750;2022-11-04T13:42:44;10.50;99.90
60293;DHT22;52402;52.670;6.750;2022-11-04T13:45:16;10.30;99.90
60293;DHT22;52402;52.670;6.750;2022-11-04T13:47:55;10.20;99.90
60293;DHT22;52402;52.670;6.750;2022-11-04T13:53:00;10.20;99.90
60293;DHT22;52402;52.670;6.750;2022-11-04T13:55:26;10.20;99.90
60293;DHT22;52402;52.670;6.750;2022-11-04T13:57:58;10.10;99.90
60293;DHT22;52402;52.670;6.750;2022-11-04T14:00:26;10.10;99.90
60293;DHT22;52402;52.670;6.750;2022-11-04T14:16:36;10.40;99.90
60293;DHT22;52402;52.670;6.750;2022-11-04T14:18:57;10.50;99.90
60293;DHT22;52402;52.670;6.750;2022-11-04T14:22:03;10.60;99.90
60293;DHT22;52402;52.670;6.750;2022-11-04T14:24:30;10.70;99.90
60293;DHT22;52402;52.670;6.750;2022-11-04T14:26:55;10.70;99.90
60293;DHT22;52402;52.670;6.750;2022-11-04T14:29:25;10.80;99.90
60293;DHT22;52402;52.670;6.750;2022-11-04T14:31:56;10.90;99.90
60293;DHT22;52402;52.670;6.750;2022-11-04T14:34:35;10.90;99.90
60293;DHT22;52402;52.670;6.750;2022-11-04T14:39:41;10.90;99.90
60293;DHT22;52402;52.670;6.750;2022-11-04T14:42:11;10.90;99.90
60293;DHT22;52402;52.670;6.750;2022-11-04T14:44:42;10.90;99.90
60293;DHT22;52402;52.670;6.750;2022-11-04T14:52:36;10.70;99.90
60293;DHT22;52402;52.670;6.750;2022-11-04T14:57:37;10.60;99.90
60293;DHT22;52402;52.670;6.750;2022-11-04T15:05:36;10.40;99.90
60293;DHT22;52402;52.670;6.750;2022-11-04T15:08:24;10.40;99.90
60293;DHT22;52402;52.670;6.750;2022-11-04T15:10:50;10.30;99.90
60293;DHT22;52402;52.670;6.750;2022-11-04T15:13:20;10.20;99.90
60293;DHT22;52402;52.670;6.750;2022-11-04T15:15:47;10.20;99.90
60293;DHT22;52402;52.670;6.750;2022-11-04T15:18:24;10.20;99.90
60293;DHT22;52402;52.670;6.750;2022-11-04T15:20:59;10.10;99.90
60293;DHT22;52402;52.670;6.750;2022-11-04T15:23:45;10.10;99.90
60293;DHT22;52402;52.670;6.750;2022-11-04T15:26:31;10.00;99.90
60293;DHT22;52402;52.670;6.750;2022-11-04T15:29:05;10.10;99.90
60293;DHT22;52402;52.670;6.750;2022-11-04T15:31:33;10.00;99.90
60293;DHT22;52402;52.670;6.750;2022-11-04T15:34:01;10.00;99.90
60293;DHT22;52402;52.670;6.750;2022-11-04T15:36:31;10.00;99.90
60293;DHT22;52402;52.670;6.750;2022-11-04T15:39:01;10.00;99.90
60293;DHT22;52402;52.670;6.750;2022-11-04T15:41:28;9.90;99.90
60293;DHT22;52402;52.670;6.750;2022-11-04T15:44:20;9.80;99.90
60293;DHT22;52402;52.670;6.750;2022-11-04T15:46:48;9.80;99.90
60293;DHT22;52402;52.670;6.750;2022-11-04T15:49:20;9.80;99.90
60293;DHT22;52402;52.670;6.750;2022-11-04T15:51:46;9.70;99.90
60293;DHT22;52402;52.670;6.750;2022-11-04T15:54:18;9.70;99.90
60293;DHT22;52402;52.670;6.750;2022-11-04T15:56:52;9.70;99.90
60293;DHT22;52402;52.670;6.750;2022-11-04T15:59:27;9.70;99.90
60293;DHT22;52402;52.670;6.750;2022-11-04T16:01:53;9.70;99.90
60293;DHT22;52402;52.670;6.750;2022-11-04T16:04:22;9.60;99.90
60293;DHT22;52402;52.670;6.750;2022-11-04T16:09:28;9.60;99.90
60293;DHT22;52402;52.670;6.750;2022-11-04T16:12:14;9.60;99.90
60293;DHT22;52402;52.670;6.750;2022-11-04T16:14:48;9.60;99.90
60293;DHT22;52402;52.670;6.750;2022-11-04T16:17:14;9.60;99.90
60293;DHT22;52402;52.670;6.750;2022-11-04T16:19:48;9.60;99.90
60293;DHT22;52402;52.670;6.750;2022-11-04T16:22:41;9.60;99.90
60293;DHT22;52402;52.670;6.750;2022-11-04T16:25:08;9.50;99.90
60293;DHT22;52402;52.670;6.750;2022-11-04T16:27:44;9.50;99.90
60293;DHT22;52402;52.670;6.750;2022-11-04T16:30:17;9.50;99.90
60293;DHT22;52402;52.670;6.750;2022-11-04T16:32:45;9.50;99.90
60293;DHT22;52402;52.670;6.750;2022-11-04T16:35:24;9.50;99.90
60293;DHT22;52402;52.670;6.750;2022-11-04T16:37:52;9.50;99.90
60293;DHT22;52402;52.670;6.750;2022-11-04T16:40:19;9.50;99.90
60293;DHT22;52402;52.670;6.750;2022-11-04T16:42:45;9.50;99.90
60293;DHT22;52402;52.670;6.750;2022-11-04T16:45:30;9.40;99.90
60293;DHT22;52402;52.670;6.750;2022-11-04T16:47:57;9.40;99.90
60293;DHT22;52402;52.670;6.750;2022-11-04T16:50:23;9.40;99.90
60293;DHT22;52402;52.670;6.750;2022-11-04T16:52:49;9.40;99.90
60293;DHT22;52402;52.670;6.750;2022-11-04T16:55:16;9.40;99.90
60293;DHT22;52402;52.670;6.750;2022-11-04T16:57:46;9.40;99.90
60293;DHT22;52402;52.670;6.750;2022-11-04T17:00:19;9.30;99.90
60293;DHT22;52402;52.670;6.750;2022-11-04T17:02:46;9.30;99.90
60293;DHT22;52402;52.670;6.750;2022-11-04T17:05:11;9.30;99.90
60293;DHT22;52402;52.670;6.750;2022-11-04T17:07:38;9.20;99.90
60293;DHT22;52402;52.670;6.750;2022-11-04T17:10:29;9.30;99.90
60293;DHT22;52402;52.670;6.750;2022-11-04T17:13:05;9.30;99.90
60293;DHT22;52402;52.670;6.750;2022-11-04T17:15:30;9.20;99.90
60293;DHT22;52402;52.670;6.750;2022-11-04T17:17:56;9.20;99.90
60293;DHT22;52402;52.670;6.750;2022-11-04T17:20:21;9.20;99.90
60293;DHT22;52402;52.670;6.750;2022-11-04T17:22:47;9.10;99.90
60293;DHT22;52402;52.670;6.750;2022-11-04T17:25:21;9.10;99.90
60293;DHT22;52402;52.670;6.750;2022-11-04T17:27:47;9.10;99.90
60293;DHT22;52402;52.670;6.750;2022-11-04T17:30:14;9.10;99.90
60293;DHT22;52402;52.670;6.750;2022-11-04T17:32:41;9.10;99.90
60293;DHT22;52402;52.670;6.750;2022-11-04T17:35:07;9.10;99.90
60293;DHT22;52402;52.670;6.750;2022-11-04T17:37:34;9.10;99.90
60293;DHT22;52402;52.670;6.750;2022-11-04T17:40:02;9.00;99.90
60293;DHT22;52402;52.670;6.750;2022-11-04T17:42:27;9.00;99.90
60293;DHT22;52402;52.670;6.750;2022-11-04T17:45:11;9.00;99.90
60293;DHT22;52402;52.670;6.750;2022-11-04T17:47:38;9.00;99.90
60293;DHT22;52402;52.670;6.750;2022-11-04T17:50:04;8.90;99.90
60293;DHT22;52402;52.670;6.750;2022-11-04T17:52:35;8.90;99.90
60293;DHT22;52402;52.670;6.750;2022-11-04T17:55:01;8.90;99.90
60293;DHT22;52402;52.670;6.750;2022-11-04T17:57:27;8.90;99.90
60293;DHT22;52402;52.670;6.750;2022-11-04T17:59:53;8.80;99.90
60293;DHT22;52402;52.670;6.750;2022-11-04T18:02:18;8.90;99.90
60293;DHT22;52402;52.670;6.750;2022-11-04T18:04:44;8.80;99.90
60293;DHT22;52402;52.670;6.750;2022-11-04T18:07:12;8.80;99.90
60293;DHT22;52402;52.670;6.750;2022-11-04T18:09:38;8.80;99.90
60293;DHT22;52402;52.670;6.750;2022-11-04T18:12:07;8.80;99.90
60293;DHT22;52402;52.670;6.750;2022-11-04T18:14:51;8.70;99.90
60293;DHT22;52402;52.670;6.750;2022-11-04T18:17:20;8.70;99.90
60293;DHT22;52402;52.670;6.750;2022-11-04T18:19:52;8.70;99.90
60293;DHT22;52402;52.670;6.750;2022-11-04T18:22:18;8.60;99.90
60293;DHT22;52402;52.670;6.750;2022-11-04T18:24:44;8.60;99.90
60293;DHT22;52402;52.670;6.750;2022-11-04T18:27:12;8.50;99.90
60293;DHT22;52402;52.670;6.750;2022-11-04T18:29:38;8.50;99.90
60293;DHT22;52402;52.670;6.750;2022-11-04T18:32:04;8.50;99.90
60293;DHT22;52402;52.670;6.750;2022-11-04T18:34:30;8.50;99.90
60293;DHT22;52402;52.670;6.750;2022-11-04T18:36:59;8.50;99.90